createdAt,value
2019-04-20T00:01:58.208Z,8.59
2019-04-20T00:04:33.454Z,8.47
2019-04-20T00:06:59.216Z,8.50
2019-04-20T00:09:31.728Z,8.42
2019-04-20T00:12:07.114Z,8.46
2019-04-20T00:14:35.622Z,8.49
2019-04-20T00:17:05.141Z,8.49
2019-04-20T00:19:40.513Z,8.38
2019-04-20T00:22:17.262Z,8.32
2019-04-20T00:25:12.647Z,8.23
2019-04-20T00:28:16.111Z,8.18
2019-04-20T00:30:50.349Z,8.21
2019-04-20T00:33:09.533Z,8.15
2019-04-20T00:35:33.852Z,8.05
2019-04-20T00:38:05.538Z,8.05
2019-04-20T00:40:36.086Z,7.87
2019-04-20T00:43:06.661Z,7.94
2019-04-20T00:45:41.394Z,7.89
2019-04-20T00:48:19.860Z,7.89
2019-04-20T00:50:48.878Z,7.94
2019-04-20T00:53:21.677Z,7.84
2019-04-20T00:55:42.264Z,7.78
2019-04-20T00:58:20.071Z,7.79
2019-04-20T01:01:07.102Z,7.75
2019-04-20T01:03:27.817Z,7.69
2019-04-20T01:06:27.231Z,7.58
2019-04-20T01:09:05.460Z,7.57
2019-04-20T01:11:40.040Z,7.56
2019-04-20T01:14:09.393Z,7.53
2019-04-20T01:16:45.191Z,7.51
2019-04-20T01:19:07.090Z,7.45
2019-04-20T01:21:36.866Z,7.39
2019-04-20T01:24:08.892Z,7.43
2019-04-20T01:26:45.581Z,7.41
2019-04-20T01:29:21.562Z,7.42
2019-04-20T01:31:55.729Z,7.42
2019-04-20T01:34:26.584Z,7.26
2019-04-20T01:36:55.649Z,7.21
2019-04-20T01:39:23.953Z,7.14
2019-04-20T01:41:45.377Z,7.08
2019-04-20T01:44:18.844Z,7.09
2019-04-20T01:46:51.373Z,6.96
2019-04-20T01:49:22.095Z,7.08
2019-04-20T01:51:57.727Z,7.06
2019-04-20T01:54:31.570Z,7.03
2019-04-20T01:57:09.406Z,7.04
2019-04-20T01:59:44.523Z,6.97
2019-04-20T02:02:27.792Z,6.78
2019-04-20T02:05:10.385Z,6.78
2019-04-20T02:07:39.990Z,6.61
2019-04-20T02:10:06.366Z,6.67
2019-04-20T02:12:37.248Z,6.69
2019-04-20T02:15:12.692Z,6.75
2019-04-20T02:17:43.535Z,6.74
2019-04-20T02:20:31.637Z,6.66
2019-04-20T02:22:57.028Z,6.64
2019-04-20T02:25:12.176Z,6.59
2019-04-20T02:27:47.141Z,6.49
2019-04-20T02:30:48.218Z,6.53
2019-04-20T02:33:27.301Z,6.55
2019-04-20T02:36:15.067Z,6.53
2019-04-20T02:39:21.073Z,6.46
2019-04-20T02:44:16.027Z,6.44
2019-04-20T02:46:40.934Z,6.43
2019-04-20T02:49:19.706Z,6.40
2019-04-20T02:51:56.696Z,6.36
2019-04-20T02:56:51.671Z,6.18
2019-04-20T02:59:45.093Z,6.15
2019-04-20T03:01:31.137Z,6.20
2019-04-20T03:03:50.380Z,6.20
2019-04-20T03:06:26.355Z,6.18
2019-04-20T03:09:11.336Z,6.00
2019-04-20T03:11:49.897Z,6.07
2019-04-20T03:14:10.907Z,6.14
2019-04-20T03:16:35.686Z,6.10
2019-04-20T03:19:08.038Z,6.07
2019-04-20T03:21:44.750Z,6.11
2019-04-20T03:24:20.419Z,6.09
2019-04-20T03:26:55.764Z,6.15
2019-04-20T03:29:42.564Z,6.15
2019-04-20T03:37:26.893Z,5.76
2019-04-20T03:39:47.589Z,5.76
2019-04-20T03:42:05.146Z,5.76
2019-04-20T03:44:35.792Z,5.78
2019-04-20T03:47:08.929Z,5.79
2019-04-20T03:50:02.696Z,5.75
2019-04-20T03:52:58.046Z,5.79
2019-04-20T03:55:40.828Z,5.71
2019-04-20T03:58:18.590Z,5.60
2019-04-20T04:01:14.796Z,5.60
2019-04-20T04:03:53.246Z,5.54
2019-04-20T04:06:15.904Z,5.56
2019-04-20T04:08:41.333Z,5.58
2019-04-20T04:11:21.652Z,5.63
2019-04-20T04:13:37.755Z,5.60
2019-04-20T04:16:11.366Z,5.70
2019-04-20T04:18:47.293Z,5.76
2019-04-20T04:21:21.267Z,5.74
2019-04-20T04:23:58.858Z,5.73
2019-04-20T04:26:30.077Z,5.61
2019-04-20T04:29:08.621Z,5.51
2019-04-20T04:31:36.322Z,5.48
2019-04-20T04:34:14.163Z,5.39
2019-04-20T04:36:36.071Z,5.47
2019-04-20T04:39:16.333Z,5.55
2019-04-20T04:41:39.810Z,5.48
2019-04-20T04:44:08.690Z,5.47
2019-04-20T04:46:24.927Z,5.50
2019-04-20T04:49:05.441Z,5.47
2019-04-20T04:51:38.475Z,5.55
2019-04-20T04:54:03.924Z,5.59
2019-04-20T04:56:30.822Z,5.92
2019-04-20T04:59:02.604Z,6.31
2019-04-20T05:01:33.744Z,6.19
2019-04-20T05:04:25.105Z,6.13
2019-04-20T05:06:48.078Z,6.24
2019-04-20T05:09:10.650Z,6.42
2019-04-20T05:11:36.980Z,6.56
2019-04-20T05:14:11.280Z,6.82
2019-04-20T05:16:54.902Z,6.86
2019-04-20T05:19:30.450Z,7.31
2019-04-20T05:22:21.843Z,8.31
2019-04-20T05:24:56.839Z,9.12
2019-04-20T05:27:59.087Z,9.24
2019-04-20T05:30:07.794Z,9.19
2019-04-20T05:32:48.273Z,9.30
2019-04-20T05:35:40.807Z,8.88
2019-04-20T05:38:06.607Z,9.20
2019-04-20T05:40:32.568Z,9.37
2019-04-20T05:43:27.540Z,10.69
2019-04-20T05:45:52.620Z,11.52
2019-04-20T05:48:26.144Z,11.14
2019-04-20T05:50:56.076Z,11.22
2019-04-20T05:53:37.033Z,11.61
2019-04-20T05:56:03.818Z,11.57
2019-04-20T05:58:33.009Z,11.92
2019-04-20T06:01:06.772Z,12.14
2019-04-20T06:03:37.213Z,12.27
2019-04-20T06:06:10.544Z,12.22
2019-04-20T06:08:51.201Z,12.54
2019-04-20T06:11:17.943Z,12.72
2019-04-20T06:14:05.013Z,12.92
2019-04-20T06:17:15.882Z,12.72
2019-04-20T06:19:39.739Z,13.49
2019-04-20T06:22:28.580Z,14.04
2019-04-20T06:25:16.634Z,14.99
2019-04-20T06:27:40.523Z,15.87
2019-04-20T06:30:06.944Z,15.27
2019-04-20T06:33:24.405Z,15.50
2019-04-20T06:36:07.399Z,16.84
2019-04-20T06:38:38.611Z,17.56
2019-04-20T06:41:02.375Z,17.56
2019-04-20T06:43:20.863Z,17.47
2019-04-20T06:46:01.956Z,17.15
2019-04-20T06:48:29.383Z,17.22
2019-04-20T06:50:53.842Z,17.50
2019-04-20T06:53:44.989Z,18.21
2019-04-20T06:56:17.442Z,17.30
2019-04-20T06:58:53.759Z,18.34
2019-04-20T07:01:21.831Z,18.42
2019-04-20T07:04:02.265Z,18.29
2019-04-20T07:06:38.346Z,18.76
2019-04-20T07:09:01.776Z,19.25
2019-04-20T07:11:25.304Z,19.54
2019-04-20T07:13:43.441Z,19.42
2019-04-20T07:16:53.123Z,19.64
2019-04-20T07:19:32.610Z,19.44
2019-04-20T07:22:18.525Z,19.75
2019-04-20T07:24:40.546Z,19.99
2019-04-20T07:27:10.366Z,20.27
2019-04-20T07:29:43.260Z,20.20
2019-04-20T07:32:06.379Z,19.65
2019-04-20T07:34:40.198Z,19.83
2019-04-20T07:39:48.407Z,19.72
2019-04-20T07:42:27.101Z,20.59
2019-04-20T07:44:57.971Z,20.67
2019-04-20T07:47:32.818Z,20.24
2019-04-20T07:49:52.718Z,20.61
2019-04-20T07:52:01.916Z,21.80
2019-04-20T07:55:13.632Z,21.81
2019-04-20T07:57:24.729Z,21.80
2019-04-20T07:59:59.131Z,22.26
2019-04-20T08:03:03.793Z,21.35
2019-04-20T08:05:40.540Z,21.87
2019-04-20T08:08:18.105Z,21.78
2019-04-20T08:10:51.662Z,23.08
2019-04-20T08:13:32.957Z,20.39
2019-04-20T08:15:57.099Z,21.55
2019-04-20T08:20:57.630Z,23.12
2019-04-20T08:23:32.008Z,23.12
2019-04-20T08:25:50.084Z,24.34
2019-04-20T08:28:34.914Z,24.78
2019-04-20T08:31:29.170Z,22.81
2019-04-20T08:34:28.246Z,22.86
2019-04-20T08:36:39.120Z,25.02
2019-04-20T08:39:23.764Z,25.35
2019-04-20T08:41:45.122Z,24.62
2019-04-20T08:44:38.070Z,25.06
2019-04-20T08:46:55.821Z,25.86
2019-04-20T08:49:20.423Z,26.43
2019-04-20T08:51:59.981Z,27.04
2019-04-20T08:54:16.747Z,25.73
2019-04-20T08:56:36.073Z,25.82
2019-04-20T08:59:02.282Z,25.75
2019-04-20T09:01:35.822Z,25.10
2019-04-20T09:04:12.471Z,25.05
2019-04-20T09:06:49.070Z,22.92
2019-04-20T09:09:37.912Z,24.39
2019-04-20T09:11:54.467Z,22.77
2019-04-20T09:14:21.379Z,25.37
2019-04-20T09:17:01.902Z,22.77
2019-04-20T09:19:37.962Z,23.69
2019-04-20T09:22:28.054Z,24.97
2019-04-20T09:25:16.137Z,25.30
2019-04-20T09:27:26.861Z,26.02
2019-04-20T09:30:03.374Z,25.56
2019-04-20T09:32:39.606Z,25.31
2019-04-20T09:35:13.613Z,25.31
2019-04-20T09:37:49.713Z,25.06
2019-04-20T09:40:33.542Z,25.42
2019-04-20T09:42:58.606Z,25.91
2019-04-20T09:45:44.365Z,24.47
2019-04-20T09:48:15.749Z,25.70
2019-04-20T09:51:07.959Z,26.37
2019-04-20T09:53:30.136Z,26.22
2019-04-20T09:56:04.668Z,23.37
2019-04-20T09:58:31.099Z,23.77
2019-04-20T10:01:06.764Z,24.74
2019-04-20T10:03:22.820Z,25.38
2019-04-20T10:05:51.983Z,25.63
2019-04-20T10:08:21.884Z,26.12
2019-04-20T10:10:52.933Z,26.22
2019-04-20T10:13:25.084Z,24.95
2019-04-20T10:15:55.435Z,24.57
2019-04-20T10:18:25.939Z,25.33
2019-04-20T10:20:57.808Z,25.89
2019-04-20T10:23:27.117Z,24.91
2019-04-20T10:25:56.597Z,26.77
2019-04-20T10:28:27.692Z,26.49
2019-04-20T10:30:58.980Z,26.44
2019-04-20T10:33:28.419Z,24.22
2019-04-20T10:35:57.767Z,25.08
2019-04-20T10:38:33.711Z,26.00
2019-04-20T10:41:08.299Z,26.79
2019-04-20T10:43:33.236Z,24.73
2019-04-20T10:46:02.734Z,26.02
2019-04-20T10:48:40.245Z,26.45
2019-04-20T10:51:03.278Z,26.33
2019-04-20T10:53:32.414Z,26.17
2019-04-20T10:56:01.594Z,27.06
2019-04-20T10:58:31.745Z,25.88
2019-04-20T11:01:03.940Z,25.72
2019-04-20T11:03:34.469Z,26.87
2019-04-20T11:06:04.802Z,27.22
2019-04-20T11:11:23.814Z,26.13
2019-04-20T11:13:48.095Z,26.13
2019-04-20T11:16:18.078Z,25.99
2019-04-20T11:18:47.363Z,27.09
2019-04-20T11:21:20.061Z,27.53
2019-04-20T11:23:49.981Z,27.41
2019-04-20T11:26:20.248Z,27.18
2019-04-20T11:28:50.389Z,26.75
2019-04-20T11:31:40.891Z,25.99
2019-04-20T11:36:57.160Z,26.65
2019-04-20T11:39:27.125Z,26.16
2019-04-20T11:41:56.525Z,26.47
2019-04-20T11:44:29.413Z,26.51
2019-04-20T11:46:58.709Z,26.96
2019-04-20T11:49:28.023Z,26.86
2019-04-20T11:52:01.558Z,26.54
2019-04-20T11:54:34.475Z,26.53
2019-04-20T11:57:04.959Z,26.92
2019-04-20T11:59:34.978Z,26.79
2019-04-20T12:02:29.578Z,26.80
2019-04-20T12:05:12.792Z,26.79
2019-04-20T12:07:40.573Z,26.58
2019-04-20T12:10:15.841Z,27.33
2019-04-20T12:12:46.728Z,26.92
2019-04-20T12:15:14.776Z,26.36
2019-04-20T12:17:44.000Z,26.61
2019-04-20T12:20:14.546Z,26.33
2019-04-20T12:22:46.281Z,27.20
2019-04-20T12:25:18.197Z,24.76
2019-04-20T12:27:52.580Z,26.61
2019-04-20T12:30:19.591Z,26.01
2019-04-20T12:32:55.305Z,26.05
2019-04-20T12:35:22.352Z,26.41
2019-04-20T12:37:51.529Z,25.74
2019-04-20T12:40:23.883Z,24.52
2019-04-20T12:42:53.283Z,25.20
2019-04-20T12:45:23.808Z,25.20
2019-04-20T12:47:53.480Z,25.76
2019-04-20T12:50:23.801Z,25.80
2019-04-20T12:52:56.645Z,26.05
2019-04-20T12:55:26.384Z,26.57
2019-04-20T12:57:56.690Z,26.02
2019-04-20T13:00:46.215Z,25.00
2019-04-20T13:03:15.510Z,25.53
2019-04-20T13:05:45.830Z,25.94
2019-04-20T13:08:23.356Z,25.80
2019-04-20T13:10:50.735Z,26.58
2019-04-20T13:13:38.753Z,25.71
2019-04-20T13:16:22.605Z,26.29
2019-04-20T13:18:55.375Z,25.97
2019-04-20T13:21:27.111Z,26.17
2019-04-20T13:23:56.498Z,25.43
2019-04-20T13:26:46.862Z,25.80
2019-04-20T13:29:20.194Z,25.87
2019-04-20T13:31:52.043Z,25.52
2019-04-20T13:34:20.211Z,25.47
2019-04-20T13:36:50.641Z,25.78
2019-04-20T13:39:19.962Z,25.83
2019-04-20T13:42:00.669Z,26.14
2019-04-20T13:44:20.098Z,25.54
2019-04-20T13:46:49.262Z,25.55
2019-04-20T13:49:18.799Z,25.15
2019-04-20T13:51:48.726Z,25.74
2019-04-20T13:54:24.351Z,25.78
2019-04-20T13:56:52.611Z,25.76
2019-04-20T13:59:37.921Z,26.14
2019-04-20T14:02:28.889Z,25.89
2019-04-20T14:05:00.079Z,25.31
2019-04-20T14:07:29.531Z,24.06
2019-04-20T14:09:59.769Z,24.88
2019-04-20T14:12:36.701Z,24.96
2019-04-20T14:15:02.908Z,24.63
2019-04-20T14:17:33.003Z,24.31
2019-04-20T14:20:09.793Z,24.42
2019-04-20T14:22:35.269Z,23.94
2019-04-20T14:25:05.107Z,24.38
2019-04-20T14:27:40.079Z,24.23
2019-04-20T14:30:09.349Z,24.41
2019-04-20T14:32:40.832Z,24.11
2019-04-20T14:35:11.344Z,23.96
2019-04-20T14:37:41.665Z,24.07
2019-04-20T14:40:12.497Z,24.12
2019-04-20T14:42:48.542Z,23.97
2019-04-20T14:45:14.455Z,24.11
2019-04-20T14:47:43.869Z,24.18
2019-04-20T14:50:14.237Z,24.09
2019-04-20T14:52:45.140Z,24.10
2019-04-20T14:55:16.949Z,24.27
2019-04-20T14:57:45.622Z,24.35
2019-04-20T15:00:29.916Z,24.18
2019-04-20T15:03:04.068Z,24.07
2019-04-20T15:05:33.142Z,24.02
2019-04-20T15:08:02.759Z,23.81
2019-04-20T15:10:33.398Z,23.81
2019-04-20T15:13:04.672Z,23.46
2019-04-20T15:15:34.580Z,23.99
2019-04-20T15:18:11.372Z,24.11
2019-04-20T15:20:45.710Z,23.90
2019-04-20T15:23:23.675Z,23.75
2019-04-20T15:25:52.998Z,23.75
2019-04-20T15:28:22.049Z,23.77
2019-04-20T15:30:52.094Z,23.75
2019-04-20T15:33:21.215Z,23.80
2019-04-20T15:35:50.396Z,23.69
2019-04-20T15:38:20.837Z,23.64
2019-04-20T15:40:53.048Z,23.74
2019-04-20T15:43:24.982Z,23.70
2019-04-20T15:45:53.289Z,23.43
2019-04-20T15:48:24.204Z,23.48
2019-04-20T15:50:54.027Z,23.50
2019-04-20T15:53:23.926Z,23.41
2019-04-20T15:55:53.303Z,23.47
2019-04-20T15:58:22.936Z,23.52
2019-04-20T16:00:52.767Z,23.40
2019-04-20T16:03:47.686Z,23.40
2019-04-20T16:06:23.123Z,23.46
2019-04-20T16:08:54.554Z,23.44
2019-04-20T16:11:26.642Z,22.64
2019-04-20T16:13:57.729Z,23.42
2019-04-20T16:16:27.834Z,23.36
2019-04-20T16:18:59.108Z,23.18
2019-04-20T16:21:31.648Z,23.26
2019-04-20T16:24:04.457Z,23.24
2019-04-20T16:26:41.933Z,23.19
2019-04-20T16:29:13.818Z,23.32
2019-04-20T16:31:46.388Z,23.23
2019-04-20T16:34:14.104Z,23.19
2019-04-20T16:36:44.513Z,23.09
2019-04-20T16:39:14.428Z,23.15
2019-04-20T16:41:48.539Z,23.14
2019-04-20T16:44:17.791Z,23.10
2019-04-20T16:46:48.253Z,23.10
2019-04-20T16:49:17.302Z,23.02
2019-04-20T16:51:47.454Z,22.92
2019-04-20T16:54:17.614Z,23.00
2019-04-20T16:56:46.861Z,22.97
2019-04-20T16:59:17.838Z,22.87
2019-04-20T17:01:48.494Z,22.87
2019-04-20T17:04:22.387Z,22.71
2019-04-20T17:07:08.518Z,22.67
2019-04-20T17:09:37.979Z,22.74
2019-04-20T17:12:07.798Z,22.52
2019-04-20T17:14:39.941Z,22.61
2019-04-20T17:17:11.585Z,22.45
2019-04-20T17:19:41.772Z,22.25
2019-04-20T17:22:14.887Z,22.13
2019-04-20T17:24:45.175Z,21.98
2019-04-20T17:27:35.115Z,21.93
2019-04-20T17:30:17.898Z,21.78
2019-04-20T17:32:45.701Z,21.70
2019-04-20T17:35:25.785Z,21.46
2019-04-20T17:37:48.664Z,21.46
2019-04-20T17:40:35.746Z,21.26
2019-04-20T17:42:59.625Z,21.20
2019-04-20T17:45:32.345Z,21.05
2019-04-20T17:48:08.843Z,21.00
2019-04-20T17:50:41.450Z,20.96
2019-04-20T17:53:07.226Z,20.90
2019-04-20T17:55:40.431Z,20.95
2019-04-20T17:58:05.749Z,20.86
2019-04-20T18:00:52.879Z,20.70
2019-04-20T18:03:58.511Z,20.63
2019-04-20T18:06:15.017Z,20.44
2019-04-20T18:08:45.413Z,20.52
2019-04-20T18:11:03.963Z,20.46
2019-04-20T18:13:29.102Z,20.24
2019-04-20T18:16:28.394Z,20.25
2019-04-20T18:19:15.647Z,20.23
2019-04-20T18:21:41.675Z,20.05
2019-04-20T18:24:42.413Z,20.07
2019-04-20T18:27:07.159Z,19.96
2019-04-20T18:29:42.891Z,19.85
2019-04-20T18:32:11.795Z,19.87
2019-04-20T18:35:00.817Z,19.78
2019-04-20T18:37:28.833Z,19.58
2019-04-20T18:40:06.201Z,18.92
2019-04-20T18:42:38.444Z,18.61
2019-04-20T18:45:23.131Z,18.48
2019-04-20T18:47:49.570Z,18.22
2019-04-20T18:50:10.738Z,17.93
2019-04-20T18:52:35.727Z,17.36
2019-04-20T18:55:06.351Z,17.16
2019-04-20T18:57:36.722Z,16.81
2019-04-20T19:00:07.931Z,16.47
2019-04-20T19:02:41.144Z,16.28
2019-04-20T19:05:09.166Z,15.91
2019-04-20T19:07:46.569Z,15.70
2019-04-20T19:10:21.034Z,15.48
2019-04-20T19:12:52.294Z,15.33
2019-04-20T19:15:56.535Z,15.09
2019-04-20T19:18:50.760Z,15.04
2019-04-20T19:21:06.874Z,14.82
2019-04-20T19:23:40.585Z,14.72
2019-04-20T19:26:12.285Z,14.56
2019-04-20T19:28:44.475Z,14.48
2019-04-20T19:31:27.796Z,14.36
2019-04-20T19:34:02.106Z,14.15
2019-04-20T19:36:25.615Z,14.07
2019-04-20T19:38:56.298Z,13.90
2019-04-20T19:41:30.119Z,13.86
2019-04-20T19:44:02.528Z,13.99
2019-04-20T19:46:46.310Z,13.85
2019-04-20T19:48:56.685Z,13.81
2019-04-20T19:51:43.520Z,13.87
2019-04-20T19:54:15.264Z,13.98
2019-04-20T19:56:38.764Z,13.87
2019-04-20T19:59:05.112Z,13.64
2019-04-20T20:01:22.006Z,13.27
2019-04-20T20:03:57.506Z,12.64
2019-04-20T20:06:29.140Z,12.59
2019-04-20T20:08:58.055Z,12.87
2019-04-20T20:11:30.425Z,13.02
2019-04-20T20:13:57.156Z,13.02
2019-04-20T20:16:33.650Z,12.86
2019-04-20T20:19:07.657Z,12.89
2019-04-20T20:21:45.743Z,12.78
2019-04-20T20:24:00.074Z,12.68
2019-04-20T20:26:35.220Z,12.84
2019-04-20T20:29:09.657Z,12.75
2019-04-20T20:31:48.590Z,12.43
2019-04-20T20:34:12.908Z,12.46
2019-04-20T20:36:43.524Z,12.57
2019-04-20T20:39:15.731Z,12.55
2019-04-20T20:41:49.148Z,12.56
2019-04-20T20:44:22.552Z,12.57
2019-04-20T20:46:53.455Z,12.53
2019-04-20T20:49:28.657Z,12.39
2019-04-20T20:52:02.753Z,12.20
2019-04-20T20:54:26.939Z,12.07
2019-04-20T20:56:51.422Z,11.97
2019-04-20T20:59:26.852Z,11.86
2019-04-20T21:01:51.753Z,11.74
2019-04-20T21:04:15.676Z,11.64
2019-04-20T21:06:44.822Z,11.58
2019-04-20T21:09:14.445Z,11.61
2019-04-20T21:11:44.315Z,11.48
2019-04-20T21:14:21.054Z,11.41
2019-04-20T21:16:53.132Z,11.26
2019-04-20T21:19:33.903Z,11.19
2019-04-20T21:21:57.088Z,11.16
2019-04-20T21:24:31.948Z,11.24
2019-04-20T21:27:09.960Z,11.28
2019-04-20T21:29:40.856Z,11.34
2019-04-20T21:32:11.883Z,11.36
2019-04-20T21:34:36.483Z,11.20
2019-04-20T21:37:11.610Z,11.04
2019-04-20T21:39:44.130Z,10.82
2019-04-20T21:42:12.544Z,10.78
2019-04-20T21:44:42.905Z,10.68
2019-04-20T21:47:15.699Z,10.74
2019-04-20T21:49:54.094Z,10.75
2019-04-20T21:52:23.466Z,10.74
2019-04-20T21:54:46.087Z,10.84
2019-04-20T21:57:18.011Z,10.73
2019-04-20T21:59:50.910Z,10.58
2019-04-20T22:02:21.680Z,10.61
2019-04-20T22:04:49.299Z,10.41
2019-04-20T22:07:20.884Z,10.26
2019-04-20T22:09:54.579Z,10.25
2019-04-20T22:12:23.598Z,10.31
2019-04-20T22:14:58.764Z,10.31
2019-04-20T22:17:28.902Z,10.13
2019-04-20T22:20:07.063Z,10.10
2019-04-20T22:22:42.400Z,10.03
2019-04-20T22:25:12.163Z,9.93
2019-04-20T22:27:34.576Z,9.90
2019-04-20T22:29:59.968Z,9.88
2019-04-20T22:32:30.060Z,9.71
2019-04-20T22:35:03.210Z,9.58
2019-04-20T22:37:38.367Z,9.51
2019-04-20T22:40:11.774Z,9.34
2019-04-20T22:42:46.479Z,9.39
2019-04-20T22:45:15.044Z,9.35
2019-04-20T22:47:42.690Z,9.31
2019-04-20T22:50:25.524Z,9.39
2019-04-20T22:52:52.481Z,9.33
2019-04-20T22:55:39.717Z,9.37
2019-04-20T22:57:53.422Z,9.39
2019-04-20T23:00:29.225Z,9.26
2019-04-20T23:02:48.876Z,8.30
2019-04-20T23:05:18.597Z,9.07
2019-04-20T23:07:48.698Z,9.01
2019-04-20T23:10:25.293Z,8.94
2019-04-20T23:12:52.933Z,8.87
2019-04-20T23:15:20.516Z,8.91
2019-04-20T23:17:52.078Z,9.02
2019-04-20T23:20:26.705Z,8.96
2019-04-20T23:22:52.946Z,8.88
2019-04-20T23:25:22.962Z,8.70
2019-04-20T23:28:02.355Z,8.61
2019-04-20T23:30:29.161Z,8.67
2019-04-20T23:32:56.061Z,8.69
2019-04-20T23:35:26.722Z,8.83
2019-04-20T23:38:02.852Z,8.86
2019-04-20T23:40:27.809Z,8.68
2019-04-20T23:43:10.208Z,8.49
2019-04-20T23:45:54.822Z,8.34
2019-04-20T23:48:46.510Z,8.28
2019-04-20T23:51:39.062Z,8.17
2019-04-20T23:53:56.449Z,8.16
2019-04-20T23:56:20.170Z,7.97
2019-04-20T23:58:52.787Z,8.05
